sensor_id;sensor_type;location;lat;lon;timestamp;pressure;altitude;pressure_sealevel;temperature;humidity
41222;BME280;26952;42.884;23.918;2023-04-28T00:01:26;96074.00;;;4.04;85.05
41222;BME280;26952;42.884;23.918;2023-04-28T00:03:51;96068.31;;;3.99;84.22
41222;BME280;26952;42.884;23.918;2023-04-28T00:06:17;96039.38;;;3.80;84.85
41222;BME280;26952;42.884;23.918;2023-04-28T00:08:42;96090.88;;;4.11;84.22
41222;BME280;26952;42.884;23.918;2023-04-28T00:11:09;96090.88;;;4.11;84.08
41222;BME280;26952;42.884;23.918;2023-04-28T00:13:34;96073.03;;;4.05;83.78
41222;BME280;26952;42.884;23.918;2023-04-28T00:16:00;96077.59;;;3.92;84.86
41222;BME280;26952;42.884;23.918;2023-04-28T00:18:25;96065.56;;;3.80;85.23
41222;BME280;26952;42.884;23.918;2023-04-28T00:20:51;96075.44;;;3.97;84.63
41222;BME280;26952;42.884;23.918;2023-04-28T00:23:16;96103.25;;;4.09;85.99
41222;BME280;26952;42.884;23.918;2023-04-28T00:25:42;96101.88;;;3.94;85.72
41222;BME280;26952;42.884;23.918;2023-04-28T00:28:07;96085.72;;;3.89;85.17
41222;BME280;26952;42.884;23.918;2023-04-28T00:30:32;96096.19;;;3.89;86.37
41222;BME280;26952;42.884;23.918;2023-04-28T00:32:58;96078.38;;;3.83;87.23
41222;BME280;26952;42.884;23.918;2023-04-28T00:35:23;96081.25;;;3.80;86.67
41222;BME280;26952;42.884;23.918;2023-04-28T00:37:48;96065.59;;;3.69;86.98
41222;BME280;26952;42.884;23.918;2023-04-28T00:40:14;96081.84;;;3.84;85.16
41222;BME280;26952;42.884;23.918;2023-04-28T00:42:40;96052.06;;;3.64;85.62
41222;BME280;26952;42.884;23.918;2023-04-28T00:45:05;96013.28;;;3.38;85.32
41222;BME280;26952;42.884;23.918;2023-04-28T00:47:32;96071.41;;;3.73;86.79
41222;BME280;26952;42.884;23.918;2023-04-28T00:49:59;96079.81;;;3.56;88.86
41222;BME280;26952;42.884;23.918;2023-04-28T00:52:26;96094.28;;;3.71;89.53
41222;BME280;26952;42.884;23.918;2023-04-28T00:54:52;96087.03;;;3.63;89.10
41222;BME280;26952;42.884;23.918;2023-04-28T00:57:18;96106.06;;;3.65;89.42
41222;BME280;26952;42.884;23.918;2023-04-28T00:59:43;96093.53;;;3.48;90.64
41222;BME280;26952;42.884;23.918;2023-04-28T01:02:09;96090.41;;;3.54;90.60
41222;BME280;26952;42.884;23.918;2023-04-28T01:04:42;96093.56;;;3.69;88.63
41222;BME280;26952;42.884;23.918;2023-04-28T01:07:08;96100.44;;;3.70;89.07
41222;BME280;26952;42.884;23.918;2023-04-28T01:09:33;96107.47;;;3.69;88.83
41222;BME280;26952;42.884;23.918;2023-04-28T01:11:59;96083.72;;;3.50;88.93
41222;BME280;26952;42.884;23.918;2023-04-28T01:14:24;96080.19;;;3.51;88.27
41222;BME280;26952;42.884;23.918;2023-04-28T01:16:50;96052.63;;;3.36;88.26
41222;BME280;26952;42.884;23.918;2023-04-28T01:19:24;95829.59;;;1.98;89.05
41222;BME280;26952;42.884;23.918;2023-04-28T01:21:50;96095.13;;;3.60;88.82
41222;BME280;26952;42.884;23.918;2023-04-28T01:24:16;96063.44;;;3.43;88.39
41222;BME280;26952;42.884;23.918;2023-04-28T01:26:41;96035.22;;;3.26;88.40
41222;BME280;26952;42.884;23.918;2023-04-28T01:29:07;96076.34;;;3.55;88.60
41222;BME280;26952;42.884;23.918;2023-04-28T01:31:32;96096.94;;;3.60;88.70
41222;BME280;26952;42.884;23.918;2023-04-28T01:33:58;96088.63;;;3.44;91.64
41222;BME280;26952;42.884;23.918;2023-04-28T01:36:24;96075.94;;;3.39;89.66
41222;BME280;26952;42.884;23.918;2023-04-28T01:38:50;96099.91;;;3.55;88.50
41222;BME280;26952;42.884;23.918;2023-04-28T01:41:15;96080.22;;;3.40;89.23
41222;BME280;26952;42.884;23.918;2023-04-28T01:43:41;96085.00;;;3.35;91.26
41222;BME280;26952;42.884;23.918;2023-04-28T01:46:08;96089.63;;;3.32;91.97
41222;BME280;26952;42.884;23.918;2023-04-28T01:48:34;96104.50;;;3.20;94.02
41222;BME280;26952;42.884;23.918;2023-04-28T01:50:59;96055.56;;;3.00;93.82
41222;BME280;26952;42.884;23.918;2023-04-28T01:53:24;96060.25;;;2.97;92.98
41222;BME280;26952;42.884;23.918;2023-04-28T01:55:50;96090.13;;;3.15;93.39
41222;BME280;26952;42.884;23.918;2023-04-28T01:58:15;96076.59;;;3.10;93.46
41222;BME280;26952;42.884;23.918;2023-04-28T02:00:41;96044.44;;;2.87;93.25
41222;BME280;26952;42.884;23.918;2023-04-28T02:03:06;96099.78;;;3.14;92.98
41222;BME280;26952;42.884;23.918;2023-04-28T02:05:31;96018.56;;;2.73;93.35
41222;BME280;26952;42.884;23.918;2023-04-28T02:07:57;96080.91;;;3.00;94.47
41222;BME280;26952;42.884;23.918;2023-04-28T02:10:22;96116.41;;;3.24;94.43
41222;BME280;26952;42.884;23.918;2023-04-28T02:12:47;96124.59;;;3.20;92.92
41222;BME280;26952;42.884;23.918;2023-04-28T02:15:13;96103.56;;;3.10;92.17
41222;BME280;26952;42.884;23.918;2023-04-28T02:17:38;96102.06;;;2.97;93.06
41222;BME280;26952;42.884;23.918;2023-04-28T02:20:04;96092.91;;;2.91;94.56
41222;BME280;26952;42.884;23.918;2023-04-28T02:22:30;96085.81;;;2.82;94.85
41222;BME280;26952;42.884;23.918;2023-04-28T02:24:56;96104.78;;;2.95;96.54
41222;BME280;26952;42.884;23.918;2023-04-28T02:27:21;96105.25;;;2.89;96.23
41222;BME280;26952;42.884;23.918;2023-04-28T02:29:47;96139.94;;;3.13;95.17
41222;BME280;26952;42.884;23.918;2023-04-28T02:32:12;96130.47;;;3.01;97.70
41222;BME280;26952;42.884;23.918;2023-04-28T02:34:37;96127.63;;;2.93;96.88
41222;BME280;26952;42.884;23.918;2023-04-28T02:37:03;96105.50;;;2.86;95.95
41222;BME280;26952;42.884;23.918;2023-04-28T02:39:28;96040.53;;;2.48;94.06
41222;BME280;26952;42.884;23.918;2023-04-28T02:41:55;96106.94;;;2.90;94.05
41222;BME280;26952;42.884;23.918;2023-04-28T02:44:20;96093.66;;;2.82;93.61
41222;BME280;26952;42.884;23.918;2023-04-28T02:46:46;96101.00;;;2.77;94.69
41222;BME280;26952;42.884;23.918;2023-04-28T02:49:11;96118.22;;;2.91;93.63
41222;BME280;26952;42.884;23.918;2023-04-28T02:51:37;96113.81;;;2.91;93.49
41222;BME280;26952;42.884;23.918;2023-04-28T02:54:03;96108.25;;;2.84;94.30
41222;BME280;26952;42.884;23.918;2023-04-28T02:56:28;96125.00;;;2.93;92.95
41222;BME280;26952;42.884;23.918;2023-04-28T02:58:54;96122.97;;;2.85;93.79
41222;BME280;26952;42.884;23.918;2023-04-28T03:01:21;96125.94;;;2.81;94.04
41222;BME280;26952;42.884;23.918;2023-04-28T03:03:46;96147.56;;;2.94;93.97
41222;BME280;26952;42.884;23.918;2023-04-28T03:06:11;96132.84;;;2.82;95.09
41222;BME280;26952;42.884;23.918;2023-04-28T03:08:37;96158.75;;;2.96;95.07
41222;BME280;26952;42.884;23.918;2023-04-28T03:11:02;96148.75;;;2.90;94.90
41222;BME280;26952;42.884;23.918;2023-04-28T03:13:27;96123.81;;;2.75;95.08
41222;BME280;26952;42.884;23.918;2023-04-28T03:15:54;96070.34;;;2.35;94.74
41222;BME280;26952;42.884;23.918;2023-04-28T03:18:20;96066.78;;;2.25;94.75
41222;BME280;26952;42.884;23.918;2023-04-28T03:20:47;96128.06;;;2.65;94.59
41222;BME280;26952;42.884;23.918;2023-04-28T03:23:12;96168.00;;;2.89;95.14
41222;BME280;26952;42.884;23.918;2023-04-28T03:25:37;96148.06;;;2.77;94.73
41222;BME280;26952;42.884;23.918;2023-04-28T03:28:03;96144.72;;;2.75;95.50
41222;BME280;26952;42.884;23.918;2023-04-28T03:30:29;96137.25;;;2.70;96.89
41222;BME280;26952;42.884;23.918;2023-04-28T03:32:54;96162.66;;;2.79;97.25
41222;BME280;26952;42.884;23.918;2023-04-28T03:35:20;96159.06;;;2.80;98.52
41222;BME280;26952;42.884;23.918;2023-04-28T03:37:45;96165.75;;;2.73;97.54
41222;BME280;26952;42.884;23.918;2023-04-28T03:40:11;96170.38;;;2.81;98.08
41222;BME280;26952;42.884;23.918;2023-04-28T03:42:36;96183.78;;;2.99;96.96
41222;BME280;26952;42.884;23.918;2023-04-28T03:45:02;96160.03;;;2.91;94.71
41222;BME280;26952;42.884;23.918;2023-04-28T03:47:29;96188.94;;;3.11;95.66
41222;BME280;26952;42.884;23.918;2023-04-28T03:49:54;96200.56;;;3.18;96.90
41222;BME280;26952;42.884;23.918;2023-04-28T03:52:19;96186.66;;;3.29;95.84
41222;BME280;26952;42.884;23.918;2023-04-28T03:54:45;96195.16;;;4.06;93.61
41222;BME280;26952;42.884;23.918;2023-04-28T03:57:10;96162.75;;;4.90;84.02
41222;BME280;26952;42.884;23.918;2023-04-28T03:59:36;96198.16;;;6.33;77.28
41222;BME280;26952;42.884;23.918;2023-04-28T04:02:02;96185.00;;;7.18;69.32
41222;BME280;26952;42.884;23.918;2023-04-28T04:04:28;96202.59;;;7.81;65.29
41222;BME280;26952;42.884;23.918;2023-04-28T04:06:54;96190.28;;;8.26;63.24
41222;BME280;26952;42.884;23.918;2023-04-28T04:09:19;96222.06;;;9.20;58.04
41222;BME280;26952;42.884;23.918;2023-04-28T04:11:45;96218.34;;;10.64;52.98
41222;BME280;26952;42.884;23.918;2023-04-28T04:14:10;96215.38;;;10.59;54.02
41222;BME280;26952;42.884;23.918;2023-04-28T04:16:36;96204.72;;;11.71;52.29
41222;BME280;26952;42.884;23.918;2023-04-28T04:19:01;96223.94;;;12.96;48.68
41222;BME280;26952;42.884;23.918;2023-04-28T04:21:27;96233.00;;;13.61;46.58
41222;BME280;26952;42.884;23.918;2023-04-28T04:23:52;96230.38;;;14.34;44.32
41222;BME280;26952;42.884;23.918;2023-04-28T04:26:18;96230.28;;;14.98;42.58
41222;BME280;26952;42.884;23.918;2023-04-28T04:28:43;96222.91;;;15.43;41.53
41222;BME280;26952;42.884;23.918;2023-04-28T04:31:09;96205.75;;;14.67;41.25
41222;BME280;26952;42.884;23.918;2023-04-28T04:33:34;96224.59;;;13.86;42.77
41222;BME280;26952;42.884;23.918;2023-04-28T04:36:01;96227.34;;;13.27;43.78
41222;BME280;26952;42.884;23.918;2023-04-28T04:38:27;96221.50;;;12.64;44.59
41222;BME280;26952;42.884;23.918;2023-04-28T04:40:52;96225.19;;;11.93;46.38
41222;BME280;26952;42.884;23.918;2023-04-28T04:43:17;96244.16;;;11.50;48.47
41222;BME280;26952;42.884;23.918;2023-04-28T04:45:43;96235.84;;;10.41;50.04
41222;BME280;26952;42.884;23.918;2023-04-28T04:48:08;96229.97;;;9.71;51.56
41222;BME280;26952;42.884;23.918;2023-04-28T04:50:34;96229.69;;;9.23;53.07
41222;BME280;26952;42.884;23.918;2023-04-28T04:52:59;96248.31;;;9.47;56.25
41222;BME280;26952;42.884;23.918;2023-04-28T04:55:24;96222.94;;;9.29;54.99
41222;BME280;26952;42.884;23.918;2023-04-28T04:57:50;96228.41;;;9.35;55.11
41222;BME280;26952;42.884;23.918;2023-04-28T05:00:16;96235.69;;;9.33;56.57
41222;BME280;26952;42.884;23.918;2023-04-28T05:02:41;96223.13;;;8.84;57.11
41222;BME280;26952;42.884;23.918;2023-04-28T05:05:07;96237.66;;;8.71;57.84
41222;BME280;26952;42.884;23.918;2023-04-28T05:07:33;96244.31;;;8.75;57.86
41222;BME280;26952;42.884;23.918;2023-04-28T05:09:59;96244.28;;;8.92;58.83
41222;BME280;26952;42.884;23.918;2023-04-28T05:12:24;96236.28;;;9.27;59.67
41222;BME280;26952;42.884;23.918;2023-04-28T05:14:50;96224.31;;;9.66;58.49
41222;BME280;26952;42.884;23.918;2023-04-28T05:17:15;96229.22;;;9.87;58.05
41222;BME280;26952;42.884;23.918;2023-04-28T05:19:41;96188.19;;;9.75;56.14
41222;BME280;26952;42.884;23.918;2023-04-28T05:22:06;96207.78;;;10.06;55.32
41222;BME280;26952;42.884;23.918;2023-04-28T05:24:32;96197.75;;;10.10;56.70
41222;BME280;26952;42.884;23.918;2023-04-28T05:26:58;96199.75;;;10.16;57.39
41222;BME280;26952;42.884;23.918;2023-04-28T05:29:23;96245.13;;;10.45;55.01
41222;BME280;26952;42.884;23.918;2023-04-28T05:31:49;96190.38;;;9.96;54.63
41222;BME280;26952;42.884;23.918;2023-04-28T05:34:14;96236.81;;;10.24;55.91
41222;BME280;26952;42.884;23.918;2023-04-28T05:36:40;96242.16;;;10.40;54.90
41222;BME280;26952;42.884;23.918;2023-04-28T05:39:05;96240.47;;;10.31;52.75
41222;BME280;26952;42.884;23.918;2023-04-28T05:41:31;96228.88;;;10.24;54.04
41222;BME280;26952;42.884;23.918;2023-04-28T05:43:57;96225.91;;;10.27;52.86
41222;BME280;26952;42.884;23.918;2023-04-28T05:46:22;96213.31;;;10.21;54.50
41222;BME280;26952;42.884;23.918;2023-04-28T05:48:47;96238.81;;;10.38;55.71
41222;BME280;26952;42.884;23.918;2023-04-28T05:51:13;96206.41;;;10.28;53.22
41222;BME280;26952;42.884;23.918;2023-04-28T05:53:38;96234.19;;;10.40;53.93
41222;BME280;26952;42.884;23.918;2023-04-28T05:56:04;96230.50;;;10.25;54.96
41222;BME280;26952;42.884;23.918;2023-04-28T05:58:30;96185.56;;;9.83;54.42
41222;BME280;26952;42.884;23.918;2023-04-28T06:00:56;96233.34;;;9.90;51.34
41222;BME280;26952;42.884;23.918;2023-04-28T06:03:21;96249.03;;;10.25;53.08
41222;BME280;26952;42.884;23.918;2023-04-28T06:05:46;96223.41;;;9.83;52.61
41222;BME280;26952;42.884;23.918;2023-04-28T06:08:12;96261.94;;;9.60;52.08
41222;BME280;26952;42.884;23.918;2023-04-28T06:10:37;96235.59;;;9.76;54.43
41222;BME280;26952;42.884;23.918;2023-04-28T06:13:02;96188.09;;;9.25;50.61
41222;BME280;26952;42.884;23.918;2023-04-28T06:15:30;96233.25;;;9.40;47.13
41222;BME280;26952;42.884;23.918;2023-04-28T06:17:56;96252.19;;;9.87;49.75
41222;BME280;26952;42.884;23.918;2023-04-28T06:20:23;96265.97;;;10.06;47.23
41222;BME280;26952;42.884;23.918;2023-04-28T06:22:48;96237.13;;;9.79;48.09
41222;BME280;26952;42.884;23.918;2023-04-28T06:25:14;96272.41;;;10.04;47.92
41222;BME280;26952;42.884;23.918;2023-04-28T06:27:39;96248.41;;;10.31;46.99
41222;BME280;26952;42.884;23.918;2023-04-28T06:30:05;96247.09;;;10.43;47.35
41222;BME280;26952;42.884;23.918;2023-04-28T06:32:31;96242.97;;;10.40;46.82
41222;BME280;26952;42.884;23.918;2023-04-28T06:34:56;96186.44;;;10.73;46.69
41222;BME280;26952;42.884;23.918;2023-04-28T06:37:22;96261.78;;;12.06;45.97
41222;BME280;26952;42.884;23.918;2023-04-28T06:39:47;96234.00;;;12.24;42.10
41222;BME280;26952;42.884;23.918;2023-04-28T06:42:13;96227.41;;;12.20;42.79
41222;BME280;26952;42.884;23.918;2023-04-28T06:44:42;96250.91;;;12.31;41.96
41222;BME280;26952;42.884;23.918;2023-04-28T06:47:07;96223.97;;;12.42;40.85
41222;BME280;26952;42.884;23.918;2023-04-28T06:49:33;96263.13;;;13.24;42.50
41222;BME280;26952;42.884;23.918;2023-04-28T06:51:58;96257.28;;;12.76;42.64
41222;BME280;26952;42.884;23.918;2023-04-28T06:54:23;96259.00;;;13.36;41.27
41222;BME280;26952;42.884;23.918;2023-04-28T06:56:49;96240.56;;;12.67;41.30
41222;BME280;26952;42.884;23.918;2023-04-28T06:59:15;96254.97;;;12.11;41.70
41222;BME280;26952;42.884;23.918;2023-04-28T07:01:40;96242.69;;;12.10;40.91
41222;BME280;26952;42.884;23.918;2023-04-28T07:04:05;96238.50;;;12.16;42.02
41222;BME280;26952;42.884;23.918;2023-04-28T07:06:31;96239.78;;;12.28;42.58
41222;BME280;26952;42.884;23.918;2023-04-28T07:08:56;96256.53;;;12.90;43.35
41222;BME280;26952;42.884;23.918;2023-04-28T07:11:22;96248.88;;;13.17;40.42
41222;BME280;26952;42.884;23.918;2023-04-28T07:13:47;96231.81;;;13.78;40.78
41222;BME280;26952;42.884;23.918;2023-04-28T07:16:16;96234.59;;;14.64;41.67
41222;BME280;26952;42.884;23.918;2023-04-28T07:18:41;96238.94;;;14.65;38.24
41222;BME280;26952;42.884;23.918;2023-04-28T07:21:07;96238.06;;;14.43;37.18
41222;BME280;26952;42.884;23.918;2023-04-28T07:23:32;96244.16;;;13.93;38.60
41222;BME280;26952;42.884;23.918;2023-04-28T07:25:58;96255.72;;;14.15;41.79
41222;BME280;26952;42.884;23.918;2023-04-28T07:28:23;96257.34;;;14.16;37.74
41222;BME280;26952;42.884;23.918;2023-04-28T07:30:49;96221.56;;;13.23;37.95
41222;BME280;26952;42.884;23.918;2023-04-28T07:33:14;96244.59;;;13.68;37.50
41222;BME280;26952;42.884;23.918;2023-04-28T07:35:40;96221.78;;;13.36;37.15
41222;BME280;26952;42.884;23.918;2023-04-28T07:38:05;96251.47;;;13.91;36.36
41222;BME280;26952;42.884;23.918;2023-04-28T07:40:31;96250.38;;;14.15;35.66
41222;BME280;26952;42.884;23.918;2023-04-28T07:42:56;96240.13;;;14.62;39.30
41222;BME280;26952;42.884;23.918;2023-04-28T07:45:22;96247.16;;;15.26;39.40
41222;BME280;26952;42.884;23.918;2023-04-28T07:47:47;96258.19;;;13.73;37.87
41222;BME280;26952;42.884;23.918;2023-04-28T07:50:12;96243.09;;;13.65;44.07
41222;BME280;26952;42.884;23.918;2023-04-28T07:52:38;96254.31;;;14.19;38.38
41222;BME280;26952;42.884;23.918;2023-04-28T07:55:04;96250.72;;;13.98;38.38
41222;BME280;26952;42.884;23.918;2023-04-28T07:57:29;96226.53;;;14.36;38.26
41222;BME280;26952;42.884;23.918;2023-04-28T07:59:55;96242.94;;;14.75;39.32
41222;BME280;26952;42.884;23.918;2023-04-28T08:02:20;96231.41;;;14.68;37.45
41222;BME280;26952;42.884;23.918;2023-04-28T08:04:46;96232.69;;;15.14;37.28
41222;BME280;26952;42.884;23.918;2023-04-28T08:07:12;96248.13;;;15.68;37.67
41222;BME280;26952;42.884;23.918;2023-04-28T08:09:37;96228.34;;;13.92;39.32
41222;BME280;26952;42.884;23.918;2023-04-28T08:12:04;96241.38;;;14.16;40.87
41222;BME280;26952;42.884;23.918;2023-04-28T08:14:29;96247.81;;;13.41;39.95
41222;BME280;26952;42.884;23.918;2023-04-28T08:16:55;96213.56;;;13.75;41.32
41222;BME280;26952;42.884;23.918;2023-04-28T08:19:21;96224.09;;;14.41;41.28
41222;BME280;26952;42.884;23.918;2023-04-28T08:21:47;96236.63;;;14.76;40.00
41222;BME280;26952;42.884;23.918;2023-04-28T08:24:13;96219.75;;;14.55;39.95
41222;BME280;26952;42.884;23.918;2023-04-28T08:26:38;96221.50;;;15.04;41.46
41222;BME280;26952;42.884;23.918;2023-04-28T08:29:04;96238.91;;;15.98;43.53
41222;BME280;26952;42.884;23.918;2023-04-28T08:31:30;96219.16;;;15.16;36.74
41222;BME280;26952;42.884;23.918;2023-04-28T08:33:55;96212.81;;;14.75;39.36
41222;BME280;26952;42.884;23.918;2023-04-28T08:36:21;96208.53;;;13.94;38.94
41222;BME280;26952;42.884;23.918;2023-04-28T08:38:47;96236.03;;;15.23;38.35
41222;BME280;26952;42.884;23.918;2023-04-28T08:41:16;96208.53;;;15.44;38.30
41222;BME280;26952;42.884;23.918;2023-04-28T08:43:42;96182.91;;;14.58;38.64
41222;BME280;26952;42.884;23.918;2023-04-28T08:46:08;96208.81;;;13.85;39.51
41222;BME280;26952;42.884;23.918;2023-04-28T08:48:42;96226.50;;;14.07;39.43
41222;BME280;26952;42.884;23.918;2023-04-28T08:51:15;96187.47;;;15.06;39.43
41222;BME280;26952;42.884;23.918;2023-04-28T08:53:43;96214.19;;;16.23;40.02
41222;BME280;26952;42.884;23.918;2023-04-28T08:56:11;96215.50;;;15.17;38.57
41222;BME280;26952;42.884;23.918;2023-04-28T08:58:40;96197.50;;;15.04;39.21
41222;BME280;26952;42.884;23.918;2023-04-28T09:01:07;96207.69;;;14.94;38.15
41222;BME280;26952;42.884;23.918;2023-04-28T09:03:32;96212.25;;;15.43;38.53
41222;BME280;26952;42.884;23.918;2023-04-28T09:05:58;96220.94;;;15.30;42.15
41222;BME280;26952;42.884;23.918;2023-04-28T09:08:23;96204.19;;;16.38;42.80
41222;BME280;26952;42.884;23.918;2023-04-28T09:11:07;96194.22;;;16.73;35.93
41222;BME280;26952;42.884;23.918;2023-04-28T09:13:34;96175.94;;;16.70;38.69
41222;BME280;26952;42.884;23.918;2023-04-28T09:16:00;96187.69;;;16.76;35.23
41222;BME280;26952;42.884;23.918;2023-04-28T09:18:27;96210.38;;;17.12;36.19
41222;BME280;26952;42.884;23.918;2023-04-28T09:21:04;96190.47;;;16.48;35.13
41222;BME280;26952;42.884;23.918;2023-04-28T09:23:29;96190.53;;;15.80;36.77
41222;BME280;26952;42.884;23.918;2023-04-28T09:26:02;96206.31;;;15.47;37.15
41222;BME280;26952;42.884;23.918;2023-04-28T09:28:28;96194.34;;;16.05;39.29
41222;BME280;26952;42.884;23.918;2023-04-28T09:30:54;96179.94;;;16.40;35.75
41222;BME280;26952;42.884;23.918;2023-04-28T09:33:20;96193.75;;;15.69;35.73
41222;BME280;26952;42.884;23.918;2023-04-28T09:35:46;96191.47;;;15.66;37.05
41222;BME280;26952;42.884;23.918;2023-04-28T09:38:13;96172.91;;;15.02;41.44
41222;BME280;26952;42.884;23.918;2023-04-28T09:45:51;96187.88;;;14.26;40.07
41222;BME280;26952;42.884;23.918;2023-04-28T09:48:17;96190.53;;;14.82;41.49
41222;BME280;26952;42.884;23.918;2023-04-28T09:50:52;96171.44;;;13.93;40.44
41222;BME280;26952;42.884;23.918;2023-04-28T09:53:21;96182.09;;;13.64;41.12
41222;BME280;26952;42.884;23.918;2023-04-28T09:55:47;96184.41;;;13.67;40.06
41222;BME280;26952;42.884;23.918;2023-04-28T09:58:15;96167.53;;;13.60;39.00
41222;BME280;26952;42.884;23.918;2023-04-28T10:00:41;96176.44;;;14.67;38.38
41222;BME280;26952;42.884;23.918;2023-04-28T10:03:08;96123.78;;;14.90;37.03
41222;BME280;26952;42.884;23.918;2023-04-28T10:05:34;96148.78;;;14.89;38.14
41222;BME280;26952;42.884;23.918;2023-04-28T10:08:01;96149.69;;;15.03;38.62
41222;BME280;26952;42.884;23.918;2023-04-28T10:10:27;96154.56;;;15.42;38.58
41222;BME280;26952;42.884;23.918;2023-04-28T10:12:54;96133.09;;;15.97;37.09
41222;BME280;26952;42.884;23.918;2023-04-28T10:15:21;96162.28;;;15.92;36.20
41222;BME280;26952;42.884;23.918;2023-04-28T10:17:49;96154.72;;;16.55;36.51
41222;BME280;26952;42.884;23.918;2023-04-28T10:20:15;96143.47;;;17.06;37.10
41222;BME280;26952;42.884;23.918;2023-04-28T10:23:27;96157.28;;;17.22;33.73
41222;BME280;26952;42.884;23.918;2023-04-28T10:25:34;96131.16;;;17.50;36.17
41222;BME280;26952;42.884;23.918;2023-04-28T10:28:05;96132.88;;;16.45;34.33
41222;BME280;26952;42.884;23.918;2023-04-28T10:30:31;96145.97;;;16.21;38.85
41222;BME280;26952;42.884;23.918;2023-04-28T10:43:01;96143.16;;;15.88;37.63
41222;BME280;26952;42.884;23.918;2023-04-28T10:48:20;96143.25;;;15.40;35.59
41222;BME280;26952;42.884;23.918;2023-04-28T10:56:19;96136.56;;;15.01;38.48
41222;BME280;26952;42.884;23.918;2023-04-28T11:06:33;96123.13;;;16.18;35.66
41222;BME280;26952;42.884;23.918;2023-04-28T11:17:04;96093.28;;;16.75;33.86
41222;BME280;26952;42.884;23.918;2023-04-28T11:19:33;96107.03;;;17.37;34.08
41222;BME280;26952;42.884;23.918;2023-04-28T11:22:01;96106.66;;;17.14;33.77
41222;BME280;26952;42.884;23.918;2023-04-28T11:24:28;96090.16;;;14.89;36.18
41222;BME280;26952;42.884;23.918;2023-04-28T11:26:55;96088.16;;;15.32;36.39
41222;BME280;26952;42.884;23.918;2023-04-28T11:29:36;96065.91;;;15.12;35.49
41222;BME280;26952;42.884;23.918;2023-04-28T11:32:04;96093.66;;;15.24;37.16
41222;BME280;26952;42.884;23.918;2023-04-28T11:34:30;96022.16;;;14.51;37.12
41222;BME280;26952;42.884;23.918;2023-04-28T11:36:56;96074.28;;;14.18;35.76
41222;BME280;26952;42.884;23.918;2023-04-28T11:39:29;96068.91;;;15.02;37.13
41222;BME280;26952;42.884;23.918;2023-04-28T11:41:56;96068.06;;;15.64;35.26
41222;BME280;26952;42.884;23.918;2023-04-28T11:44:23;96057.13;;;15.99;37.38
41222;BME280;26952;42.884;23.918;2023-04-28T11:46:50;96075.03;;;16.12;34.86
41222;BME280;26952;42.884;23.918;2023-04-28T11:49:21;96085.13;;;16.23;37.06
41222;BME280;26952;42.884;23.918;2023-04-28T11:51:49;96087.69;;;16.50;36.20
41222;BME280;26952;42.884;23.918;2023-04-28T11:54:25;96081.56;;;16.83;36.81
41222;BME280;26952;42.884;23.918;2023-04-28T11:56:52;96065.69;;;16.68;33.40
41222;BME280;26952;42.884;23.918;2023-04-28T11:59:34;96050.28;;;16.57;33.53
41222;BME280;26952;42.884;23.918;2023-04-28T12:02:05;96047.69;;;16.10;36.06
41222;BME280;26952;42.884;23.918;2023-04-28T12:04:34;96068.66;;;15.25;36.88
41222;BME280;26952;42.884;23.918;2023-04-28T12:07:08;96062.91;;;15.56;36.12
41222;BME280;26952;42.884;23.918;2023-04-28T12:09:42;96000.09;;;15.25;37.27
41222;BME280;26952;42.884;23.918;2023-04-28T12:15:12;96060.53;;;15.74;39.57
41222;BME280;26952;42.884;23.918;2023-04-28T12:17:39;96057.56;;;16.03;35.52
41222;BME280;26952;42.884;23.918;2023-04-28T12:20:07;96062.06;;;16.02;34.43
41222;BME280;26952;42.884;23.918;2023-04-28T12:22:47;96048.56;;;16.23;36.51
41222;BME280;26952;42.884;23.918;2023-04-28T12:25:16;96033.78;;;16.34;36.81
41222;BME280;26952;42.884;23.918;2023-04-28T12:28:01;96041.88;;;15.40;38.05
41222;BME280;26952;42.884;23.918;2023-04-28T12:30:28;96031.16;;;15.74;36.37
41222;BME280;26952;42.884;23.918;2023-04-28T12:32:54;96029.66;;;15.24;37.52
41222;BME280;26952;42.884;23.918;2023-04-28T12:35:27;96016.03;;;15.12;36.56
41222;BME280;26952;42.884;23.918;2023-04-28T12:37:53;96003.69;;;15.05;38.59
41222;BME280;26952;42.884;23.918;2023-04-28T12:40:19;96018.00;;;15.32;37.14
41222;BME280;26952;42.884;23.918;2023-04-28T12:42:45;96033.28;;;15.98;37.45
41222;BME280;26952;42.884;23.918;2023-04-28T12:45:10;96019.25;;;15.76;36.89
41222;BME280;26952;42.884;23.918;2023-04-28T12:47:36;96031.22;;;15.87;38.21
41222;BME280;26952;42.884;23.918;2023-04-28T12:50:03;96013.16;;;16.02;36.98
41222;BME280;26952;42.884;23.918;2023-04-28T12:52:28;96011.25;;;15.83;36.59
41222;BME280;26952;42.884;23.918;2023-04-28T12:54:54;96014.94;;;15.69;35.38
41222;BME280;26952;42.884;23.918;2023-04-28T12:57:19;96012.66;;;15.66;36.33
41222;BME280;26952;42.884;23.918;2023-04-28T12:59:47;96007.59;;;15.97;38.08
41222;BME280;26952;42.884;23.918;2023-04-28T13:02:13;96005.59;;;16.25;35.18
41222;BME280;26952;42.884;23.918;2023-04-28T13:04:40;96019.34;;;16.02;35.67
41222;BME280;26952;42.884;23.918;2023-04-28T13:07:07;96013.59;;;16.12;38.20
41222;BME280;26952;42.884;23.918;2023-04-28T13:09:32;96020.06;;;15.70;36.44
41222;BME280;26952;42.884;23.918;2023-04-28T13:11:58;96029.13;;;15.82;38.12
41222;BME280;26952;42.884;23.918;2023-04-28T13:14:25;96014.25;;;15.54;36.48
41222;BME280;26952;42.884;23.918;2023-04-28T13:16:52;96004.28;;;15.35;37.18
41222;BME280;26952;42.884;23.918;2023-04-28T13:19:17;96002.56;;;15.20;37.59
41222;BME280;26952;42.884;23.918;2023-04-28T13:21:43;96000.06;;;15.19;36.86
41222;BME280;26952;42.884;23.918;2023-04-28T13:24:11;95996.88;;;14.96;37.84
41222;BME280;26952;42.884;23.918;2023-04-28T13:26:38;95985.88;;;15.05;39.15
41222;BME280;26952;42.884;23.918;2023-04-28T13:29:04;96017.88;;;15.05;39.10
41222;BME280;26952;42.884;23.918;2023-04-28T13:31:30;95936.28;;;14.49;38.16
41222;BME280;26952;42.884;23.918;2023-04-28T13:33:56;95985.94;;;14.84;37.92